sensor_id;sensor_type;location;lat;lon;timestamp;P1;durP1;ratioP1;P2;durP2;ratioP2
70560;SDS011;58109;53.570;10.084;2022-08-19T00:00:36;21.50;;;13.27;;
70560;SDS011;58109;53.570;10.084;2022-08-19T00:03:02;26.83;;;13.47;;
70560;SDS011;58109;53.570;10.084;2022-08-19T00:05:31;23.07;;;13.33;;
70560;SDS011;58109;53.570;10.084;2022-08-19T00:08:01;19.57;;;13.33;;
70560;SDS011;58109;53.570;10.084;2022-08-19T00:10:27;19.43;;;13.83;;
70560;SDS011;58109;53.570;10.084;2022-08-19T00:12:55;29.50;;;16.77;;
70560;SDS011;58109;53.570;10.084;2022-08-19T00:15:22;24.73;;;15.67;;
70560;SDS011;58109;53.570;10.084;2022-08-19T00:17:50;36.10;;;17.83;;
70560;SDS011;58109;53.570;10.084;2022-08-19T00:20:17;27.27;;;17.17;;
70560;SDS011;58109;53.570;10.084;2022-08-19T00:22:48;39.63;;;20.70;;
70560;SDS011;58109;53.570;10.084;2022-08-19T00:25:13;36.27;;;21.20;;
70560;SDS011;58109;53.570;10.084;2022-08-19T00:27:41;40.80;;;23.97;;
70560;SDS011;58109;53.570;10.084;2022-08-19T00:30:09;42.30;;;22.10;;
70560;SDS011;58109;53.570;10.084;2022-08-19T00:32:35;40.00;;;22.20;;
70560;SDS011;58109;53.570;10.084;2022-08-19T00:35:04;45.67;;;23.93;;
70560;SDS011;58109;53.570;10.084;2022-08-19T00:37:34;43.20;;;23.00;;
70560;SDS011;58109;53.570;10.084;2022-08-19T00:40:00;42.47;;;23.57;;
70560;SDS011;58109;53.570;10.084;2022-08-19T00:42:28;41.80;;;22.97;;
70560;SDS011;58109;53.570;10.084;2022-08-19T00:44:55;45.53;;;22.90;;
70560;SDS011;58109;53.570;10.084;2022-08-19T00:47:21;44.00;;;22.80;;
70560;SDS011;58109;53.570;10.084;2022-08-19T00:49:51;42.53;;;21.93;;
70560;SDS011;58109;53.570;10.084;2022-08-19T00:52:23;41.67;;;21.73;;
70560;SDS011;58109;53.570;10.084;2022-08-19T00:54:53;38.10;;;20.90;;
70560;SDS011;58109;53.570;10.084;2022-08-19T00:57:29;39.33;;;21.80;;
70560;SDS011;58109;53.570;10.084;2022-08-19T00:59:57;51.33;;;22.37;;
70560;SDS011;58109;53.570;10.084;2022-08-19T01:02:30;37.00;;;22.23;;
70560;SDS011;58109;53.570;10.084;2022-08-19T01:04:56;46.97;;;23.07;;
70560;SDS011;58109;53.570;10.084;2022-08-19T01:07:24;46.90;;;23.63;;
70560;SDS011;58109;53.570;10.084;2022-08-19T01:09:49;48.90;;;25.53;;
70560;SDS011;58109;53.570;10.084;2022-08-19T01:12:15;42.30;;;21.83;;
70560;SDS011;58109;53.570;10.084;2022-08-19T01:14:41;54.17;;;24.27;;
70560;SDS011;58109;53.570;10.084;2022-08-19T01:17:10;43.47;;;23.60;;
70560;SDS011;58109;53.570;10.084;2022-08-19T01:19:37;46.27;;;24.10;;
70560;SDS011;58109;53.570;10.084;2022-08-19T01:24:48;44.37;;;21.67;;
70560;SDS011;58109;53.570;10.084;2022-08-19T01:27:16;45.83;;;21.47;;
70560;SDS011;58109;53.570;10.084;2022-08-19T01:29:42;37.90;;;20.73;;
70560;SDS011;58109;53.570;10.084;2022-08-19T01:32:11;40.50;;;20.83;;
70560;SDS011;58109;53.570;10.084;2022-08-19T01:34:37;45.33;;;21.30;;
70560;SDS011;58109;53.570;10.084;2022-08-19T01:37:10;47.20;;;20.90;;
70560;SDS011;58109;53.570;10.084;2022-08-19T01:39:39;36.00;;;21.13;;
70560;SDS011;58109;53.570;10.084;2022-08-19T01:42:06;44.20;;;22.00;;
70560;SDS011;58109;53.570;10.084;2022-08-19T01:44:36;40.57;;;21.43;;
70560;SDS011;58109;53.570;10.084;2022-08-19T01:47:02;47.70;;;22.63;;
70560;SDS011;58109;53.570;10.084;2022-08-19T01:49:31;39.10;;;20.97;;
70560;SDS011;58109;53.570;10.084;2022-08-19T01:51:58;45.47;;;22.23;;
70560;SDS011;58109;53.570;10.084;2022-08-19T01:54:27;39.73;;;20.70;;
70560;SDS011;58109;53.570;10.084;2022-08-19T01:56:54;41.80;;;20.00;;
70560;SDS011;58109;53.570;10.084;2022-08-19T01:59:23;48.03;;;22.90;;
70560;SDS011;58109;53.570;10.084;2022-08-19T02:01:51;33.23;;;19.50;;
70560;SDS011;58109;53.570;10.084;2022-08-19T02:04:16;41.83;;;20.13;;
70560;SDS011;58109;53.570;10.084;2022-08-19T02:06:44;44.23;;;22.27;;
70560;SDS011;58109;53.570;10.084;2022-08-19T02:09:09;37.33;;;21.43;;
70560;SDS011;58109;53.570;10.084;2022-08-19T02:11:35;37.93;;;21.40;;
70560;SDS011;58109;53.570;10.084;2022-08-19T02:14:03;34.97;;;19.80;;
70560;SDS011;58109;53.570;10.084;2022-08-19T02:16:30;48.73;;;24.37;;
70560;SDS011;58109;53.570;10.084;2022-08-19T02:18:58;57.03;;;24.30;;
70560;SDS011;58109;53.570;10.084;2022-08-19T02:21:29;49.67;;;22.60;;
70560;SDS011;58109;53.570;10.084;2022-08-19T02:23:55;44.23;;;23.40;;
70560;SDS011;58109;53.570;10.084;2022-08-19T02:26:25;49.27;;;22.37;;
70560;SDS011;58109;53.570;10.084;2022-08-19T02:28:52;43.83;;;21.83;;
70560;SDS011;58109;53.570;10.084;2022-08-19T02:31:20;49.40;;;21.80;;
70560;SDS011;58109;53.570;10.084;2022-08-19T02:33:49;45.33;;;22.33;;
70560;SDS011;58109;53.570;10.084;2022-08-19T02:36:18;43.87;;;21.70;;
70560;SDS011;58109;53.570;10.084;2022-08-19T02:38:43;37.23;;;19.93;;
70560;SDS011;58109;53.570;10.084;2022-08-19T02:41:17;42.50;;;21.23;;
70560;SDS011;58109;53.570;10.084;2022-08-19T02:43:46;44.67;;;21.20;;
70560;SDS011;58109;53.570;10.084;2022-08-19T02:46:16;35.67;;;19.80;;
70560;SDS011;58109;53.570;10.084;2022-08-19T02:48:49;41.90;;;21.27;;
70560;SDS011;58109;53.570;10.084;2022-08-19T02:51:24;44.80;;;20.50;;
70560;SDS011;58109;53.570;10.084;2022-08-19T02:53:51;39.50;;;20.53;;
70560;SDS011;58109;53.570;10.084;2022-08-19T02:56:17;49.40;;;23.37;;
70560;SDS011;58109;53.570;10.084;2022-08-19T02:58:45;42.87;;;19.90;;
70560;SDS011;58109;53.570;10.084;2022-08-19T03:01:18;47.50;;;22.70;;
70560;SDS011;58109;53.570;10.084;2022-08-19T03:03:53;48.53;;;20.90;;
70560;SDS011;58109;53.570;10.084;2022-08-19T03:06:18;42.50;;;20.30;;
70560;SDS011;58109;53.570;10.084;2022-08-19T03:08:44;53.37;;;24.10;;
70560;SDS011;58109;53.570;10.084;2022-08-19T03:11:18;52.37;;;22.97;;
70560;SDS011;58109;53.570;10.084;2022-08-19T03:13:51;58.30;;;24.00;;
70560;SDS011;58109;53.570;10.084;2022-08-19T03:16:19;57.93;;;23.30;;
70560;SDS011;58109;53.570;10.084;2022-08-19T03:18:51;49.63;;;22.67;;
70560;SDS011;58109;53.570;10.084;2022-08-19T03:21:19;61.43;;;25.33;;
70560;SDS011;58109;53.570;10.084;2022-08-19T03:23:48;53.13;;;23.40;;
70560;SDS011;58109;53.570;10.084;2022-08-19T03:26:16;64.43;;;27.33;;
70560;SDS011;58109;53.570;10.084;2022-08-19T03:28:43;57.17;;;24.27;;
70560;SDS011;58109;53.570;10.084;2022-08-19T03:31:10;64.97;;;25.40;;
70560;SDS011;58109;53.570;10.084;2022-08-19T03:33:36;65.07;;;26.60;;
70560;SDS011;58109;53.570;10.084;2022-08-19T03:38:32;64.00;;;26.90;;
70560;SDS011;58109;53.570;10.084;2022-08-19T03:41:01;68.23;;;26.47;;
70560;SDS011;58109;53.570;10.084;2022-08-19T03:43:28;69.37;;;26.87;;
70560;SDS011;58109;53.570;10.084;2022-08-19T03:48:57;65.77;;;25.43;;
70560;SDS011;58109;53.570;10.084;2022-08-19T03:51:32;76.53;;;28.00;;
70560;SDS011;58109;53.570;10.084;2022-08-19T03:54:04;76.47;;;26.47;;
70560;SDS011;58109;53.570;10.084;2022-08-19T03:56:38;72.87;;;28.40;;
70560;SDS011;58109;53.570;10.084;2022-08-19T03:59:08;92.60;;;28.73;;
70560;SDS011;58109;53.570;10.084;2022-08-19T04:01:38;61.07;;;25.97;;
70560;SDS011;58109;53.570;10.084;2022-08-19T04:04:06;67.87;;;26.60;;
70560;SDS011;58109;53.570;10.084;2022-08-19T04:06:32;68.83;;;24.70;;
70560;SDS011;58109;53.570;10.084;2022-08-19T04:09:04;56.73;;;25.73;;
70560;SDS011;58109;53.570;10.084;2022-08-19T04:14:30;70.20;;;24.07;;
70560;SDS011;58109;53.570;10.084;2022-08-19T04:16:56;65.13;;;23.93;;
70560;SDS011;58109;53.570;10.084;2022-08-19T04:19:23;61.63;;;24.57;;
70560;SDS011;58109;53.570;10.084;2022-08-19T04:21:52;61.20;;;25.87;;
70560;SDS011;58109;53.570;10.084;2022-08-19T04:24:23;65.80;;;24.83;;
70560;SDS011;58109;53.570;10.084;2022-08-19T04:26:49;57.43;;;24.60;;
70560;SDS011;58109;53.570;10.084;2022-08-19T04:29:19;61.43;;;23.63;;
70560;SDS011;58109;53.570;10.084;2022-08-19T04:31:47;61.53;;;24.43;;
70560;SDS011;58109;53.570;10.084;2022-08-19T04:34:16;47.17;;;21.97;;
70560;SDS011;58109;53.570;10.084;2022-08-19T04:36:43;65.10;;;24.07;;
70560;SDS011;58109;53.570;10.084;2022-08-19T04:39:11;58.40;;;24.50;;
70560;SDS011;58109;53.570;10.084;2022-08-19T04:41:38;56.20;;;22.73;;
70560;SDS011;58109;53.570;10.084;2022-08-19T04:44:25;55.13;;;24.50;;
70560;SDS011;58109;53.570;10.084;2022-08-19T04:46:50;46.97;;;24.00;;
70560;SDS011;58109;53.570;10.084;2022-08-19T04:49:17;57.43;;;24.93;;
70560;SDS011;58109;53.570;10.084;2022-08-19T04:51:44;59.27;;;24.63;;
70560;SDS011;58109;53.570;10.084;2022-08-19T04:54:15;58.63;;;25.73;;
70560;SDS011;58109;53.570;10.084;2022-08-19T04:56:41;63.57;;;27.87;;
70560;SDS011;58109;53.570;10.084;2022-08-19T04:59:07;61.70;;;27.00;;
70560;SDS011;58109;53.570;10.084;2022-08-19T05:01:33;70.53;;;27.07;;
70560;SDS011;58109;53.570;10.084;2022-08-19T05:04:01;81.07;;;29.80;;
70560;SDS011;58109;53.570;10.084;2022-08-19T05:06:31;79.77;;;29.30;;
70560;SDS011;58109;53.570;10.084;2022-08-19T05:09:01;68.70;;;31.23;;
70560;SDS011;58109;53.570;10.084;2022-08-19T05:11:32;66.00;;;30.70;;
70560;SDS011;58109;53.570;10.084;2022-08-19T05:13:59;73.20;;;30.73;;
70560;SDS011;58109;53.570;10.084;2022-08-19T05:16:28;68.90;;;32.10;;
70560;SDS011;58109;53.570;10.084;2022-08-19T05:18:54;67.57;;;31.30;;
70560;SDS011;58109;53.570;10.084;2022-08-19T05:21:40;77.27;;;30.90;;
70560;SDS011;58109;53.570;10.084;2022-08-19T05:24:25;65.87;;;30.97;;
70560;SDS011;58109;53.570;10.084;2022-08-19T05:26:55;78.50;;;33.20;;
70560;SDS011;58109;53.570;10.084;2022-08-19T05:29:27;72.47;;;32.40;;
70560;SDS011;58109;53.570;10.084;2022-08-19T05:31:54;78.47;;;32.93;;
70560;SDS011;58109;53.570;10.084;2022-08-19T05:34:20;72.70;;;31.70;;
70560;SDS011;58109;53.570;10.084;2022-08-19T05:36:50;75.90;;;32.73;;
70560;SDS011;58109;53.570;10.084;2022-08-19T05:39:21;73.60;;;32.20;;
70560;SDS011;58109;53.570;10.084;2022-08-19T05:41:47;82.17;;;33.60;;
70560;SDS011;58109;53.570;10.084;2022-08-19T05:44:17;84.67;;;34.10;;
70560;SDS011;58109;53.570;10.084;2022-08-19T05:46:42;70.53;;;32.70;;
70560;SDS011;58109;53.570;10.084;2022-08-19T05:49:14;70.00;;;33.07;;
70560;SDS011;58109;53.570;10.084;2022-08-19T05:51:43;74.37;;;32.73;;
70560;SDS011;58109;53.570;10.084;2022-08-19T05:54:08;72.93;;;33.37;;
70560;SDS011;58109;53.570;10.084;2022-08-19T05:56:38;85.03;;;32.10;;
70560;SDS011;58109;53.570;10.084;2022-08-19T05:59:08;83.23;;;35.50;;
70560;SDS011;58109;53.570;10.084;2022-08-19T06:01:39;80.17;;;34.33;;
70560;SDS011;58109;53.570;10.084;2022-08-19T06:04:07;62.43;;;31.03;;
70560;SDS011;58109;53.570;10.084;2022-08-19T06:06:33;76.53;;;33.70;;
70560;SDS011;58109;53.570;10.084;2022-08-19T06:09:01;78.67;;;35.57;;
70560;SDS011;58109;53.570;10.084;2022-08-19T06:11:46;83.83;;;32.67;;
70560;SDS011;58109;53.570;10.084;2022-08-19T06:14:18;75.27;;;31.23;;
70560;SDS011;58109;53.570;10.084;2022-08-19T06:16:47;67.00;;;32.37;;
70560;SDS011;58109;53.570;10.084;2022-08-19T06:19:16;71.67;;;33.03;;
70560;SDS011;58109;53.570;10.084;2022-08-19T06:21:48;67.73;;;29.03;;
70560;SDS011;58109;53.570;10.084;2022-08-19T06:24:17;63.17;;;32.23;;
70560;SDS011;58109;53.570;10.084;2022-08-19T06:26:48;63.40;;;31.07;;
70560;SDS011;58109;53.570;10.084;2022-08-19T06:29:15;65.00;;;32.50;;
70560;SDS011;58109;53.570;10.084;2022-08-19T06:31:43;72.83;;;31.93;;
70560;SDS011;58109;53.570;10.084;2022-08-19T06:34:13;71.73;;;30.37;;
70560;SDS011;58109;53.570;10.084;2022-08-19T06:36:40;66.20;;;30.00;;
70560;SDS011;58109;53.570;10.084;2022-08-19T06:39:11;72.47;;;28.90;;
70560;SDS011;58109;53.570;10.084;2022-08-19T06:41:38;65.03;;;28.87;;
70560;SDS011;58109;53.570;10.084;2022-08-19T06:44:07;63.53;;;29.50;;
70560;SDS011;58109;53.570;10.084;2022-08-19T06:46:36;68.17;;;29.43;;
70560;SDS011;58109;53.570;10.084;2022-08-19T06:49:05;56.90;;;27.47;;
70560;SDS011;58109;53.570;10.084;2022-08-19T06:51:35;65.40;;;29.93;;
70560;SDS011;58109;53.570;10.084;2022-08-19T06:54:04;56.20;;;28.27;;
70560;SDS011;58109;53.570;10.084;2022-08-19T06:56:30;57.90;;;29.77;;
70560;SDS011;58109;53.570;10.084;2022-08-19T06:58:59;72.77;;;30.43;;
70560;SDS011;58109;53.570;10.084;2022-08-19T07:01:29;54.03;;;27.83;;
70560;SDS011;58109;53.570;10.084;2022-08-19T07:03:57;64.70;;;30.97;;
70560;SDS011;58109;53.570;10.084;2022-08-19T07:06:26;63.23;;;30.97;;
70560;SDS011;58109;53.570;10.084;2022-08-19T07:08:54;65.17;;;29.47;;
70560;SDS011;58109;53.570;10.084;2022-08-19T07:11:19;62.70;;;30.20;;
70560;SDS011;58109;53.570;10.084;2022-08-19T07:13:47;68.63;;;30.77;;
70560;SDS011;58109;53.570;10.084;2022-08-19T07:16:14;69.10;;;32.93;;
70560;SDS011;58109;53.570;10.084;2022-08-19T07:18:44;74.43;;;32.30;;
70560;SDS011;58109;53.570;10.084;2022-08-19T07:21:14;80.33;;;35.07;;
70560;SDS011;58109;53.570;10.084;2022-08-19T07:23:43;73.80;;;34.80;;
70560;SDS011;58109;53.570;10.084;2022-08-19T07:28:43;76.80;;;34.20;;
70560;SDS011;58109;53.570;10.084;2022-08-19T07:31:12;72.27;;;33.40;;
70560;SDS011;58109;53.570;10.084;2022-08-19T07:33:39;84.33;;;34.00;;
70560;SDS011;58109;53.570;10.084;2022-08-19T07:36:09;80.67;;;34.83;;
70560;SDS011;58109;53.570;10.084;2022-08-19T07:38:42;80.60;;;35.60;;
70560;SDS011;58109;53.570;10.084;2022-08-19T07:41:18;79.43;;;34.53;;
70560;SDS011;58109;53.570;10.084;2022-08-19T07:43:46;72.63;;;32.00;;
70560;SDS011;58109;53.570;10.084;2022-08-19T07:46:12;87.77;;;34.03;;
70560;SDS011;58109;53.570;10.084;2022-08-19T07:48:39;90.30;;;34.33;;
70560;SDS011;58109;53.570;10.084;2022-08-19T07:51:09;64.63;;;31.20;;
70560;SDS011;58109;53.570;10.084;2022-08-19T07:53:35;70.93;;;30.57;;
70560;SDS011;58109;53.570;10.084;2022-08-19T07:56:02;79.73;;;32.30;;
70560;SDS011;58109;53.570;10.084;2022-08-19T07:58:31;77.60;;;32.30;;
70560;SDS011;58109;53.570;10.084;2022-08-19T08:00:59;74.17;;;31.20;;
70560;SDS011;58109;53.570;10.084;2022-08-19T08:03:25;77.10;;;34.13;;
70560;SDS011;58109;53.570;10.084;2022-08-19T08:06:09;75.57;;;31.80;;
70560;SDS011;58109;53.570;10.084;2022-08-19T08:08:53;70.80;;;32.00;;
70560;SDS011;58109;53.570;10.084;2022-08-19T08:11:56;73.23;;;31.57;;
70560;SDS011;58109;53.570;10.084;2022-08-19T08:14:28;71.70;;;31.50;;
70560;SDS011;58109;53.570;10.084;2022-08-19T08:16:55;62.20;;;31.63;;
70560;SDS011;58109;53.570;10.084;2022-08-19T08:19:24;62.60;;;31.17;;
70560;SDS011;58109;53.570;10.084;2022-08-19T08:21:51;65.77;;;31.43;;
70560;SDS011;58109;53.570;10.084;2022-08-19T08:24:21;57.40;;;28.87;;
70560;SDS011;58109;53.570;10.084;2022-08-19T08:26:47;55.93;;;27.63;;
70560;SDS011;58109;53.570;10.084;2022-08-19T08:29:15;58.93;;;29.97;;
70560;SDS011;58109;53.570;10.084;2022-08-19T08:31:41;63.50;;;28.57;;
70560;SDS011;58109;53.570;10.084;2022-08-19T08:34:08;61.97;;;27.37;;
70560;SDS011;58109;53.570;10.084;2022-08-19T08:36:40;54.53;;;27.90;;
70560;SDS011;58109;53.570;10.084;2022-08-19T08:39:09;61.23;;;26.30;;
70560;SDS011;58109;53.570;10.084;2022-08-19T08:41:52;61.13;;;25.47;;
70560;SDS011;58109;53.570;10.084;2022-08-19T08:44:23;54.27;;;26.93;;
70560;SDS011;58109;53.570;10.084;2022-08-19T08:46:59;55.27;;;26.60;;
70560;SDS011;58109;53.570;10.084;2022-08-19T08:54:36;51.83;;;26.00;;
70560;SDS011;58109;53.570;10.084;2022-08-19T08:57:09;52.40;;;27.07;;
70560;SDS011;58109;53.570;10.084;2022-08-19T08:59:40;64.77;;;27.10;;
70560;SDS011;58109;53.570;10.084;2022-08-19T09:02:07;54.27;;;26.20;;
70560;SDS011;58109;53.570;10.084;2022-08-19T09:04:36;54.53;;;26.50;;
70560;SDS011;58109;53.570;10.084;2022-08-19T09:07:08;41.97;;;22.00;;
70560;SDS011;58109;53.570;10.084;2022-08-19T09:09:45;41.33;;;20.70;;
70560;SDS011;58109;53.570;10.084;2022-08-19T09:15:05;36.40;;;18.37;;
70560;SDS011;58109;53.570;10.084;2022-08-19T09:17:32;32.77;;;17.53;;
70560;SDS011;58109;53.570;10.084;2022-08-19T09:20:06;34.43;;;17.40;;
70560;SDS011;58109;53.570;10.084;2022-08-19T09:22:40;42.80;;;19.23;;
70560;SDS011;58109;53.570;10.084;2022-08-19T09:25:10;39.60;;;20.90;;
70560;SDS011;58109;53.570;10.084;2022-08-19T09:27:37;45.67;;;21.03;;
70560;SDS011;58109;53.570;10.084;2022-08-19T09:30:06;36.70;;;19.73;;
70560;SDS011;58109;53.570;10.084;2022-08-19T09:32:38;48.53;;;22.30;;
70560;SDS011;58109;53.570;10.084;2022-08-19T09:35:04;45.53;;;20.93;;
70560;SDS011;58109;53.570;10.084;2022-08-19T09:37:31;41.57;;;21.20;;
70560;SDS011;58109;53.570;10.084;2022-08-19T09:39:59;51.33;;;22.07;;
70560;SDS011;58109;53.570;10.084;2022-08-19T09:42:24;48.47;;;21.70;;
70560;SDS011;58109;53.570;10.084;2022-08-19T09:44:49;56.73;;;20.77;;
70560;SDS011;58109;53.570;10.084;2022-08-19T09:47:17;41.00;;;19.97;;
70560;SDS011;58109;53.570;10.084;2022-08-19T09:49:42;46.97;;;22.13;;
70560;SDS011;58109;53.570;10.084;2022-08-19T09:52:09;42.47;;;21.30;;
70560;SDS011;58109;53.570;10.084;2022-08-19T09:54:36;43.27;;;20.40;;
70560;SDS011;58109;53.570;10.084;2022-08-19T09:57:02;42.60;;;20.93;;
70560;SDS011;58109;53.570;10.084;2022-08-19T09:59:30;57.80;;;22.77;;
70560;SDS011;58109;53.570;10.084;2022-08-19T10:02:33;56.33;;;28.20;;
70560;SDS011;58109;53.570;10.084;2022-08-19T10:04:59;51.03;;;22.93;;
70560;SDS011;58109;53.570;10.084;2022-08-19T10:07:43;49.10;;;23.43;;
70560;SDS011;58109;53.570;10.084;2022-08-19T10:10:09;41.83;;;21.80;;
70560;SDS011;58109;53.570;10.084;2022-08-19T10:12:35;57.83;;;26.90;;
70560;SDS011;58109;53.570;10.084;2022-08-19T10:15:01;50.13;;;23.27;;
70560;SDS011;58109;53.570;10.084;2022-08-19T10:17:27;51.83;;;23.67;;
70560;SDS011;58109;53.570;10.084;2022-08-19T10:19:54;44.53;;;25.03;;
70560;SDS011;58109;53.570;10.084;2022-08-19T10:22:22;48.40;;;22.70;;
70560;SDS011;58109;53.570;10.084;2022-08-19T10:24:52;45.63;;;21.77;;
70560;SDS011;58109;53.570;10.084;2022-08-19T10:27:21;50.93;;;29.63;;
70560;SDS011;58109;53.570;10.084;2022-08-19T10:29:46;74.50;;;30.63;;
70560;SDS011;58109;53.570;10.084;2022-08-19T10:32:17;45.60;;;20.60;;
70560;SDS011;58109;53.570;10.084;2022-08-19T10:34:49;42.43;;;19.57;;
70560;SDS011;58109;53.570;10.084;2022-08-19T10:37:15;51.23;;;21.57;;
70560;SDS011;58109;53.570;10.084;2022-08-19T10:39:45;44.57;;;21.40;;
70560;SDS011;58109;53.570;10.084;2022-08-19T10:42:12;42.57;;;19.77;;
70560;SDS011;58109;53.570;10.084;2022-08-19T10:44:39;54.43;;;22.50;;
70560;SDS011;58109;53.570;10.084;2022-08-19T10:47:04;46.23;;;23.13;;
70560;SDS011;58109;53.570;10.084;2022-08-19T10:49:30;37.90;;;20.50;;
70560;SDS011;58109;53.570;10.084;2022-08-19T10:51:57;43.13;;;21.40;;
70560;SDS011;58109;53.570;10.084;2022-08-19T10:54:41;47.37;;;21.40;;
70560;SDS011;58109;53.570;10.084;2022-08-19T10:57:25;41.53;;;21.30;;
70560;SDS011;58109;53.570;10.084;2022-08-19T10:59:54;43.17;;;20.50;;
70560;SDS011;58109;53.570;10.084;2022-08-19T11:02:21;53.97;;;22.30;;
70560;SDS011;58109;53.570;10.084;2022-08-19T11:04:48;39.03;;;22.10;;
70560;SDS011;58109;53.570;10.084;2022-08-19T11:07:16;64.30;;;22.83;;
70560;SDS011;58109;53.570;10.084;2022-08-19T11:09:41;42.87;;;22.33;;
70560;SDS011;58109;53.570;10.084;2022-08-19T11:12:08;48.83;;;23.20;;
70560;SDS011;58109;53.570;10.084;2022-08-19T11:14:34;56.80;;;22.87;;
70560;SDS011;58109;53.570;10.084;2022-08-19T11:17:03;57.47;;;30.10;;
70560;SDS011;58109;53.570;10.084;2022-08-19T11:19:29;61.60;;;29.13;;
70560;SDS011;58109;53.570;10.084;2022-08-19T11:21:55;42.37;;;23.70;;
70560;SDS011;58109;53.570;10.084;2022-08-19T11:24:21;56.63;;;24.70;;
70560;SDS011;58109;53.570;10.084;2022-08-19T11:26:51;63.67;;;29.47;;
70560;SDS011;58109;53.570;10.084;2022-08-19T11:29:21;62.13;;;28.23;;
70560;SDS011;58109;53.570;10.084;2022-08-19T11:31:50;50.60;;;23.43;;
70560;SDS011;58109;53.570;10.084;2022-08-19T11:34:21;53.40;;;24.70;;
70560;SDS011;58109;53.570;10.084;2022-08-19T11:36:49;55.47;;;22.80;;
70560;SDS011;58109;53.570;10.084;2022-08-19T11:39:18;44.23;;;23.57;;
70560;SDS011;58109;53.570;10.084;2022-08-19T11:41:44;41.27;;;21.77;;
70560;SDS011;58109;53.570;10.084;2022-08-19T11:44:10;50.27;;;22.40;;
70560;SDS011;58109;53.570;10.084;2022-08-19T11:46:36;44.43;;;22.60;;
70560;SDS011;58109;53.570;10.084;2022-08-19T11:49:03;42.50;;;24.60;;
70560;SDS011;58109;53.570;10.084;2022-08-19T11:51:30;50.40;;;21.73;;
70560;SDS011;58109;53.570;10.084;2022-08-19T11:53:57;41.73;;;22.23;;
70560;SDS011;58109;53.570;10.084;2022-08-19T11:56:23;44.37;;;22.67;;
70560;SDS011;58109;53.570;10.084;2022-08-19T11:58:49;58.93;;;21.63;;
70560;SDS011;58109;53.570;10.084;2022-08-19T12:01:19;42.03;;;20.43;;
70560;SDS011;58109;53.570;10.084;2022-08-19T12:03:47;43.60;;;20.97;;
70560;SDS011;58109;53.570;10.084;2022-08-19T12:06:20;37.90;;;20.73;;
70560;SDS011;58109;53.570;10.084;2022-08-19T12:08:52;33.00;;;17.83;;
70560;SDS011;58109;53.570;10.084;2022-08-19T12:11:18;35.53;;;19.23;;
70560;SDS011;58109;53.570;10.084;2022-08-19T12:13:44;35.90;;;19.50;;
70560;SDS011;58109;53.570;10.084;2022-08-19T12:16:12;33.47;;;18.43;;
70560;SDS011;58109;53.570;10.084;2022-08-19T12:18:40;36.17;;;17.87;;
70560;SDS011;58109;53.570;10.084;2022-08-19T12:21:08;30.60;;;17.87;;
70560;SDS011;58109;53.570;10.084;2022-08-19T12:23:38;36.60;;;18.50;;
70560;SDS011;58109;53.570;10.084;2022-08-19T12:26:04;27.67;;;17.30;;
70560;SDS011;58109;53.570;10.084;2022-08-19T12:28:30;29.77;;;17.40;;
70560;SDS011;58109;53.570;10.084;2022-08-19T12:30:55;32.97;;;17.33;;
70560;SDS011;58109;53.570;10.084;2022-08-19T12:33:21;39.50;;;18.70;;
70560;SDS011;58109;53.570;10.084;2022-08-19T12:35:55;33.97;;;19.60;;
70560;SDS011;58109;53.570;10.084;2022-08-19T12:38:32;29.83;;;16.47;;
70560;SDS011;58109;53.570;10.084;2022-08-19T12:40:57;33.20;;;16.17;;
70560;SDS011;58109;53.570;10.084;2022-08-19T12:43:23;27.40;;;17.77;;
70560;SDS011;58109;53.570;10.084;2022-08-19T12:45:49;26.30;;;16.83;;
70560;SDS011;58109;53.570;10.084;2022-08-19T12:48:14;34.83;;;17.00;;
70560;SDS011;58109;53.570;10.084;2022-08-19T12:50:43;31.20;;;16.50;;
70560;SDS011;58109;53.570;10.084;2022-08-19T12:53:14;29.73;;;17.17;;
70560;SDS011;58109;53.570;10.084;2022-08-19T12:55:40;32.00;;;17.97;;
70560;SDS011;58109;53.570;10.084;2022-08-19T12:58:08;28.67;;;16.47;;
70560;SDS011;58109;53.570;10.084;2022-08-19T13:00:34;29.80;;;17.57;;
70560;SDS011;58109;53.570;10.084;2022-08-19T13:03:02;26.73;;;14.70;;
70560;SDS011;58109;53.570;10.084;2022-08-19T13:05:29;26.90;;;16.97;;
70560;SDS011;58109;53.570;10.084;2022-08-19T13:07:56;41.30;;;17.70;;
70560;SDS011;58109;53.570;10.084;2022-08-19T13:10:27;39.07;;;16.67;;
70560;SDS011;58109;53.570;10.084;2022-08-19T13:13:16;29.23;;;18.17;;
70560;SDS011;58109;53.570;10.084;2022-08-19T13:15:43;29.93;;;16.30;;
70560;SDS011;58109;53.570;10.084;2022-08-19T13:18:10;35.80;;;18.70;;
70560;SDS011;58109;53.570;10.084;2022-08-19T13:20:37;36.10;;;18.53;;
70560;SDS011;58109;53.570;10.084;2022-08-19T13:23:07;32.37;;;17.00;;
70560;SDS011;58109;53.570;10.084;2022-08-19T13:25:33;28.53;;;16.37;;
70560;SDS011;58109;53.570;10.084;2022-08-19T13:28:01;34.13;;;18.30;;
70560;SDS011;58109;53.570;10.084;2022-08-19T13:30:31;33.87;;;17.73;;
70560;SDS011;58109;53.570;10.084;2022-08-19T13:33:15;37.53;;;17.87;;
70560;SDS011;58109;53.570;10.084;2022-08-19T13:38:13;26.80;;;16.47;;
70560;SDS011;58109;53.570;10.084;2022-08-19T13:40:40;23.40;;;15.83;;
70560;SDS011;58109;53.570;10.084;2022-08-19T13:43:06;29.97;;;17.10;;
70560;SDS011;58109;53.570;10.084;2022-08-19T13:45:33;24.40;;;16.80;;
70560;SDS011;58109;53.570;10.084;2022-08-19T13:47:59;25.07;;;16.07;;
70560;SDS011;58109;53.570;10.084;2022-08-19T13:50:29;27.63;;;15.43;;
70560;SDS011;58109;53.570;10.084;2022-08-19T13:52:56;22.47;;;15.10;;
70560;SDS011;58109;53.570;10.084;2022-08-19T13:55:22;22.33;;;14.60;;
70560;SDS011;58109;53.570;10.084;2022-08-19T13:57:52;31.80;;;19.50;;
70560;SDS011;58109;53.570;10.084;2022-08-19T14:00:21;34.37;;;19.20;;
70560;SDS011;58109;53.570;10.084;2022-08-19T14:02:50;26.43;;;16.10;;
70560;SDS011;58109;53.570;10.084;2022-08-19T14:05:19;24.53;;;15.87;;
70560;SDS011;58109;53.570;10.084;2022-08-19T14:07:47;26.30;;;16.07;;
70560;SDS011;58109;53.570;10.084;2022-08-19T14:10:15;23.97;;;16.10;;
70560;SDS011;58109;53.570;10.084;2022-08-19T14:12:44;27.10;;;16.90;;
70560;SDS011;58109;53.570;10.084;2022-08-19T14:15:15;23.20;;;16.10;;
70560;SDS011;58109;53.570;10.084;2022-08-19T14:17:41;26.20;;;16.40;;
70560;SDS011;58109;53.570;10.084;2022-08-19T14:20:11;26.10;;;14.77;;
70560;SDS011;58109;53.570;10.084;2022-08-19T14:22:39;23.83;;;15.83;;
70560;SDS011;58109;53.570;10.084;2022-08-19T14:25:06;22.83;;;16.10;;
70560;SDS011;58109;53.570;10.084;2022-08-19T14:27:39;22.20;;;14.20;;
70560;SDS011;58109;53.570;10.084;2022-08-19T14:30:06;21.57;;;13.50;;
70560;SDS011;58109;53.570;10.084;2022-08-19T14:32:34;23.50;;;14.83;;
70560;SDS011;58109;53.570;10.084;2022-08-19T14:35:00;20.57;;;14.23;;
70560;SDS011;58109;53.570;10.084;2022-08-19T14:37:39;20.40;;;13.67;;
70560;SDS011;58109;53.570;10.084;2022-08-19T14:40:05;25.17;;;14.60;;
70560;SDS011;58109;53.570;10.084;2022-08-19T14:42:34;22.53;;;15.20;;